createdAt,value
2023-05-06T00:02:01.639Z,3.27
2023-05-06T00:04:28.363Z,3.60
2023-05-06T00:06:56.701Z,3.20
2023-05-06T00:09:24.186Z,3.10
2023-05-06T00:11:51.413Z,3.23
2023-05-06T00:14:18.118Z,3.93
2023-05-06T00:16:44.958Z,3.80
2023-05-06T00:19:12.525Z,3.60
2023-05-06T00:21:39.207Z,3.13
2023-05-06T00:24:06.183Z,3.80
2023-05-06T00:26:32.831Z,3.60
2023-05-06T00:28:59.411Z,3.90
2023-05-06T00:31:26.032Z,3.50
2023-05-06T00:33:52.681Z,3.67
2023-05-06T00:36:19.337Z,3.70
2023-05-06T00:38:46.061Z,3.67
2023-05-06T00:41:12.779Z,3.50
2023-05-06T00:43:39.410Z,3.90
2023-05-06T00:46:07.858Z,3.63
2023-05-06T00:48:36.040Z,3.40
2023-05-06T00:51:02.752Z,3.60
2023-05-06T00:53:29.532Z,4.73
2023-05-06T00:55:56.417Z,5.20
2023-05-06T00:58:23.027Z,4.27
2023-05-06T01:00:49.993Z,3.53
2023-05-06T01:03:17.114Z,2.97
2023-05-06T01:05:59.695Z,3.47
2023-05-06T01:08:51.373Z,3.20
2023-05-06T01:12:02.474Z,3.17
2023-05-06T01:14:38.862Z,3.27
2023-05-06T01:17:09.287Z,3.23
2023-05-06T01:19:43.030Z,3.90
2023-05-06T01:22:11.407Z,4.30
2023-05-06T01:24:45.667Z,3.50
2023-05-06T01:27:13.960Z,4.37
2023-05-06T01:29:43.610Z,3.80
2023-05-06T01:32:50.927Z,3.87
2023-05-06T01:36:05.302Z,3.70
2023-05-06T01:38:57.507Z,3.07
2023-05-06T01:41:43.781Z,4.70
2023-05-06T01:44:11.596Z,4.17
2023-05-06T01:46:38.327Z,4.40
2023-05-06T01:49:10.349Z,4.03
2023-05-06T01:51:37.537Z,3.63
2023-05-06T01:54:04.894Z,4.10
2023-05-06T01:56:31.696Z,4.93
2023-05-06T01:58:59.719Z,5.77
2023-05-06T02:01:26.800Z,4.20
2023-05-06T02:03:53.537Z,4.80
2023-05-06T02:06:20.366Z,5.10
2023-05-06T02:08:47.082Z,4.00
2023-05-06T02:11:13.709Z,4.30
2023-05-06T02:13:40.515Z,4.20
2023-05-06T02:16:08.709Z,4.10
2023-05-06T02:18:35.638Z,4.20
2023-05-06T02:21:03.139Z,3.73
2023-05-06T02:23:30.079Z,3.53
2023-05-06T02:25:58.005Z,4.67
2023-05-06T02:28:25.273Z,4.30
2023-05-06T02:30:56.326Z,3.40
2023-05-06T02:33:23.689Z,4.07
2023-05-06T02:35:51.178Z,3.60
2023-05-06T02:38:18.751Z,3.83
2023-05-06T02:40:45.486Z,4.17
2023-05-06T02:43:12.161Z,6.23
2023-05-06T02:45:39.212Z,4.00
2023-05-06T02:48:06.299Z,4.07
2023-05-06T02:50:33.864Z,3.60
2023-05-06T02:53:00.696Z,4.13
2023-05-06T02:55:27.331Z,4.30
2023-05-06T02:57:53.930Z,3.80
2023-05-06T03:00:20.912Z,4.40
2023-05-06T03:02:47.556Z,4.30
2023-05-06T03:05:14.200Z,4.10
2023-05-06T03:07:41.219Z,5.53
2023-05-06T03:10:08.166Z,4.80
2023-05-06T03:12:34.844Z,4.93
2023-05-06T03:15:01.494Z,4.70
2023-05-06T03:17:28.144Z,4.20
2023-05-06T03:19:54.901Z,4.60
2023-05-06T03:22:21.517Z,4.63
2023-05-06T03:24:48.092Z,5.83
2023-05-06T03:27:14.735Z,4.90
2023-05-06T03:29:41.352Z,4.70
2023-05-06T03:32:08.056Z,3.87
2023-05-06T03:34:34.641Z,4.23
2023-05-06T03:37:01.306Z,4.67
2023-05-06T03:39:27.959Z,4.30
2023-05-06T03:41:54.626Z,4.03
2023-05-06T03:44:21.306Z,4.20
2023-05-06T03:46:47.988Z,4.57
2023-05-06T03:49:14.664Z,4.50
2023-05-06T03:51:41.345Z,5.13
2023-05-06T03:54:07.971Z,4.93
2023-05-06T03:56:34.582Z,8.10
2023-05-06T03:59:01.168Z,7.47
2023-05-06T04:01:27.797Z,6.73
2023-05-06T04:03:54.593Z,5.53
2023-05-06T04:06:21.300Z,4.57
2023-05-06T04:08:47.911Z,5.30
2023-05-06T04:11:14.589Z,5.27
2023-05-06T04:13:41.224Z,5.50
2023-05-06T04:16:09.569Z,5.10
2023-05-06T04:18:36.450Z,4.93
2023-05-06T04:21:03.151Z,5.57
2023-05-06T04:23:29.819Z,5.27
2023-05-06T04:25:57.736Z,6.07
2023-05-06T04:28:24.453Z,5.93
2023-05-06T04:30:51.500Z,5.17
2023-05-06T04:33:18.149Z,4.63
2023-05-06T04:35:54.216Z,6.33
2023-05-06T04:38:22.550Z,5.50
2023-05-06T04:40:55.957Z,5.03
2023-05-06T04:43:22.688Z,5.00
2023-05-06T04:45:49.538Z,4.67
2023-05-06T04:48:21.988Z,4.50
2023-05-06T04:50:49.364Z,4.80
2023-05-06T04:53:16.280Z,4.77
2023-05-06T04:55:43.091Z,4.70
2023-05-06T04:58:09.746Z,5.07
2023-05-06T05:00:36.413Z,5.13
2023-05-06T05:03:03.426Z,4.90
2023-05-06T05:05:32.472Z,4.67
2023-05-06T05:07:59.079Z,5.47
2023-05-06T05:10:25.708Z,4.70
2023-05-06T05:12:52.382Z,5.13
2023-05-06T05:15:20.314Z,5.20
2023-05-06T05:17:47.441Z,8.20
2023-05-06T05:20:14.221Z,4.30
2023-05-06T05:22:40.877Z,9.73
2023-05-06T05:25:08.540Z,6.67
2023-05-06T05:27:35.476Z,5.43
2023-05-06T05:30:02.085Z,6.23
2023-05-06T05:32:28.828Z,6.07
2023-05-06T05:34:55.683Z,5.13
2023-05-06T05:37:22.408Z,5.00
2023-05-06T05:39:49.016Z,8.10
2023-05-06T05:42:15.673Z,8.70
2023-05-06T05:44:42.275Z,6.53
2023-05-06T05:47:08.889Z,5.10
2023-05-06T05:49:36.007Z,4.97
2023-05-06T05:52:02.703Z,8.10
2023-05-06T05:54:29.451Z,6.43
2023-05-06T05:56:56.063Z,6.30
2023-05-06T05:59:22.690Z,10.60
2023-05-06T06:01:49.309Z,6.07
2023-05-06T06:04:15.956Z,5.33
2023-05-06T06:06:42.834Z,5.33
2023-05-06T06:09:09.943Z,5.10
2023-05-06T06:11:36.565Z,4.80
2023-05-06T06:14:03.157Z,5.20
2023-05-06T06:16:29.825Z,5.30
2023-05-06T06:18:56.558Z,6.33
2023-05-06T06:21:23.225Z,6.23
2023-05-06T06:23:49.877Z,5.43
2023-05-06T06:26:16.501Z,7.27
2023-05-06T06:28:44.605Z,7.23
2023-05-06T06:31:11.660Z,5.37
2023-05-06T06:33:38.305Z,5.10
2023-05-06T06:36:05.479Z,5.70
2023-05-06T06:38:32.154Z,7.87
2023-05-06T06:40:58.744Z,7.43
2023-05-06T06:43:26.716Z,6.77
2023-05-06T06:45:53.453Z,5.10
2023-05-06T06:48:20.202Z,4.30
2023-05-06T06:50:46.839Z,4.63
2023-05-06T06:53:13.602Z,4.23
2023-05-06T06:55:43.799Z,6.13
2023-05-06T06:58:10.825Z,5.20
2023-05-06T07:00:37.503Z,4.83
2023-05-06T07:03:04.288Z,4.10
2023-05-06T07:05:31.118Z,5.17
2023-05-06T07:07:57.817Z,4.40
2023-05-06T07:10:24.457Z,3.60
2023-05-06T07:12:51.214Z,4.60
2023-05-06T07:15:17.878Z,4.73
2023-05-06T07:17:44.530Z,5.17
2023-05-06T07:20:11.968Z,4.33
2023-05-06T07:22:39.007Z,3.87
2023-05-06T07:25:06.181Z,3.43
2023-05-06T07:27:32.884Z,3.80
2023-05-06T07:30:00.083Z,3.70
2023-05-06T07:32:26.813Z,3.00
2023-05-06T07:34:53.433Z,4.40
2023-05-06T07:37:20.082Z,3.47
2023-05-06T07:39:46.816Z,5.03
2023-05-06T07:42:13.472Z,3.27
2023-05-06T07:44:40.199Z,3.13
2023-05-06T07:47:07.750Z,2.70
2023-05-06T07:49:35.149Z,2.93
2023-05-06T07:52:02.076Z,2.53
2023-05-06T07:54:28.818Z,3.03
2023-05-06T07:56:55.864Z,2.27
2023-05-06T07:59:22.759Z,2.60
2023-05-06T08:01:49.363Z,2.63
2023-05-06T08:04:16.192Z,2.30
2023-05-06T08:06:42.811Z,2.10
2023-05-06T08:09:11.331Z,2.17
2023-05-06T08:11:39.496Z,2.10
2023-05-06T08:14:06.110Z,2.30
2023-05-06T08:16:32.822Z,2.63
2023-05-06T08:18:59.600Z,2.60
2023-05-06T08:21:26.289Z,3.30
2023-05-06T08:23:53.074Z,2.43
2023-05-06T08:26:19.702Z,2.37
2023-05-06T08:28:46.406Z,3.30
2023-05-06T08:31:13.172Z,2.60
2023-05-06T08:33:39.783Z,3.03
2023-05-06T08:36:06.704Z,2.50
2023-05-06T08:38:33.366Z,2.10
2023-05-06T08:41:07.657Z,2.10
2023-05-06T08:43:40.519Z,2.23
2023-05-06T08:46:07.402Z,1.93
2023-05-06T08:48:34.057Z,2.00
2023-05-06T08:51:03.436Z,2.60
2023-05-06T08:53:31.537Z,2.33
2023-05-06T08:56:04.184Z,2.60
2023-05-06T08:58:35.901Z,4.10
2023-05-06T09:01:03.957Z,3.40
2023-05-06T09:03:31.153Z,2.47
2023-05-06T09:05:58.311Z,2.87
2023-05-06T09:08:25.024Z,2.40
2023-05-06T09:10:51.642Z,2.63
2023-05-06T09:13:19.584Z,2.73
2023-05-06T09:15:48.089Z,3.03
2023-05-06T09:18:16.289Z,2.57
2023-05-06T09:20:45.533Z,2.80
2023-05-06T09:23:14.459Z,2.40
2023-05-06T09:25:42.651Z,1.90
2023-05-06T09:28:11.156Z,2.20
2023-05-06T09:30:47.351Z,3.03
2023-05-06T09:33:14.038Z,2.10
2023-05-06T09:35:42.869Z,3.17
2023-05-06T09:38:10.504Z,2.77
2023-05-06T09:40:38.277Z,3.45
2023-05-06T09:43:05.696Z,2.40
2023-05-06T09:45:33.235Z,4.27
2023-05-06T09:48:00.867Z,2.53
2023-05-06T09:50:27.991Z,2.30
2023-05-06T09:52:56.230Z,2.80
2023-05-06T09:55:26.396Z,2.60
2023-05-06T09:57:53.397Z,2.03
2023-05-06T10:00:26.738Z,2.00
2023-05-06T10:02:55.054Z,1.60
2023-05-06T10:05:24.524Z,1.53
2023-05-06T10:07:53.420Z,1.40
2023-05-06T10:10:21.232Z,1.30
2023-05-06T10:12:49.894Z,1.53
2023-05-06T10:15:16.707Z,1.30
2023-05-06T10:17:48.056Z,1.33
2023-05-06T10:20:16.176Z,1.47
2023-05-06T10:23:04.150Z,3.67
2023-05-06T10:25:39.504Z,61.03
2023-05-06T10:28:09.946Z,16.60
2023-05-06T10:30:39.786Z,97.93
2023-05-06T10:33:08.623Z,100.83
2023-05-06T10:35:35.300Z,163.20
2023-05-06T10:38:04.858Z,110.70
2023-05-06T10:40:32.099Z,184.73
2023-05-06T10:43:33.973Z,238.80
2023-05-06T10:46:15.322Z,830.33
2023-05-06T10:49:08.487Z,785.65
2023-05-06T10:51:35.426Z,858.45
2023-05-06T10:54:08.994Z,771.50
2023-05-06T10:56:41.334Z,703.00
2023-05-06T10:59:12.373Z,751.33
2023-05-06T11:01:45.925Z,412.23
2023-05-06T11:04:15.912Z,27.37
2023-05-06T11:06:48.398Z,8.83
2023-05-06T11:09:17.846Z,1.90
2023-05-06T11:12:03.894Z,1.50
2023-05-06T11:14:35.646Z,1.50
2023-05-06T11:17:09.076Z,1.30
2023-05-06T11:19:37.830Z,1.20
2023-05-06T11:22:06.330Z,1.30
2023-05-06T11:24:39.999Z,1.30
2023-05-06T11:27:07.411Z,1.47
2023-05-06T11:29:34.022Z,1.20
2023-05-06T11:32:00.805Z,1.10
2023-05-06T11:34:29.757Z,0.93
2023-05-06T11:37:04.853Z,0.87
2023-05-06T11:39:40.566Z,0.90
2023-05-06T11:42:08.653Z,1.10
2023-05-06T11:44:39.430Z,1.20
2023-05-06T11:47:08.002Z,1.20
2023-05-06T11:49:42.209Z,1.30
2023-05-06T11:52:10.617Z,1.20
2023-05-06T11:54:42.148Z,1.20
2023-05-06T11:57:09.413Z,1.33
2023-05-06T11:59:37.788Z,1.20
2023-05-06T12:02:09.482Z,1.20
2023-05-06T12:04:47.153Z,1.40
2023-05-06T12:07:15.877Z,1.60
2023-05-06T12:09:48.783Z,1.40
2023-05-06T12:12:22.113Z,1.40
2023-05-06T12:14:50.285Z,1.00
2023-05-06T12:17:28.593Z,1.13
2023-05-06T12:19:56.928Z,1.17
2023-05-06T12:22:27.248Z,1.10
2023-05-06T12:24:53.949Z,1.20
2023-05-06T12:27:34.401Z,1.20
2023-05-06T12:30:01.533Z,1.30
2023-05-06T12:32:28.199Z,1.27
2023-05-06T12:34:55.885Z,1.40
2023-05-06T12:37:29.717Z,1.23
2023-05-06T12:39:58.738Z,0.90
2023-05-06T12:42:26.396Z,1.10
2023-05-06T12:44:53.035Z,1.10
2023-05-06T12:47:26.662Z,0.90
2023-05-06T12:49:54.650Z,1.00
2023-05-06T12:52:26.265Z,1.33
2023-05-06T12:54:53.365Z,1.10
2023-05-06T12:57:20.359Z,0.90
2023-05-06T12:59:49.352Z,1.00
2023-05-06T13:02:16.978Z,0.90
2023-05-06T13:04:45.130Z,0.80
2023-05-06T13:07:12.000Z,1.03
2023-05-06T13:09:38.625Z,0.73
2023-05-06T13:12:05.928Z,1.10
2023-05-06T13:14:32.547Z,1.27
2023-05-06T13:17:01.017Z,1.10
2023-05-06T13:19:32.940Z,1.10
2023-05-06T13:22:00.414Z,1.13
2023-05-06T13:24:27.311Z,1.17
2023-05-06T13:26:53.906Z,1.03
2023-05-06T13:29:20.650Z,1.00
2023-05-06T13:31:47.295Z,1.10
2023-05-06T13:34:13.915Z,1.00
2023-05-06T13:36:40.597Z,0.70
2023-05-06T13:39:08.344Z,1.07
2023-05-06T13:41:35.247Z,0.93
2023-05-06T13:44:01.852Z,0.80
2023-05-06T13:46:28.512Z,0.93
2023-05-06T13:48:55.299Z,1.20
2023-05-06T13:51:21.921Z,0.90
2023-05-06T13:53:48.593Z,1.30
2023-05-06T13:56:15.207Z,0.80
2023-05-06T13:58:41.851Z,1.00
2023-05-06T14:01:08.456Z,1.20
2023-05-06T14:03:35.051Z,1.10
2023-05-06T14:06:01.706Z,1.03
2023-05-06T14:08:28.475Z,1.10
2023-05-06T14:10:55.088Z,1.00
2023-05-06T14:13:21.797Z,0.90
2023-05-06T14:15:48.554Z,1.10
2023-05-06T14:18:15.720Z,1.00
2023-05-06T14:20:42.302Z,1.10
2023-05-06T14:23:08.909Z,0.93
2023-05-06T14:25:35.592Z,1.13
2023-05-06T14:28:02.248Z,0.83
2023-05-06T14:30:28.906Z,1.00
2023-05-06T14:32:55.558Z,0.80
2023-05-06T14:35:22.383Z,0.80
2023-05-06T14:37:49.052Z,0.73
2023-05-06T14:40:16.196Z,0.80
2023-05-06T14:42:42.998Z,0.80
2023-05-06T14:45:10.479Z,0.90
2023-05-06T14:47:38.726Z,0.70
2023-05-06T14:50:08.770Z,0.63
2023-05-06T14:52:36.656Z,0.90
2023-05-06T14:55:04.067Z,1.00
2023-05-06T14:57:30.651Z,1.00
2023-05-06T14:59:57.392Z,0.83
2023-05-06T15:02:24.073Z,0.90
2023-05-06T15:04:51.663Z,0.70
2023-05-06T15:07:18.323Z,0.60
2023-05-06T15:09:45.166Z,1.00
2023-05-06T15:12:11.790Z,0.80
2023-05-06T15:14:39.346Z,1.00
2023-05-06T15:17:19.082Z,0.67
2023-05-06T15:19:46.225Z,0.70
2023-05-06T15:22:12.899Z,0.70
2023-05-06T15:24:39.517Z,0.70
2023-05-06T15:27:06.438Z,0.63
2023-05-06T15:29:33.121Z,0.83
2023-05-06T15:31:59.848Z,0.80
2023-05-06T15:34:26.490Z,0.97
2023-05-06T15:36:53.623Z,1.20
2023-05-06T15:39:20.774Z,1.10
2023-05-06T15:41:47.999Z,0.80
2023-05-06T15:44:16.364Z,0.80
2023-05-06T15:46:43.524Z,1.10
2023-05-06T15:49:33.716Z,1.10
2023-05-06T15:51:59.073Z,0.90
2023-05-06T15:54:27.386Z,0.90
2023-05-06T15:56:53.993Z,1.17
2023-05-06T15:59:20.819Z,1.20
2023-05-06T16:04:17.354Z,0.97
2023-05-06T16:06:44.150Z,0.90
2023-05-06T16:09:10.898Z,0.80
2023-05-06T16:11:37.506Z,1.00
2023-05-06T16:14:04.316Z,0.90
2023-05-06T16:16:30.986Z,1.00
2023-05-06T16:18:57.798Z,0.80
2023-05-06T16:21:24.409Z,0.80
2023-05-06T16:23:51.283Z,0.77
2023-05-06T16:26:18.014Z,0.90
2023-05-06T16:28:44.733Z,0.90
2023-05-06T16:31:11.423Z,0.67
2023-05-06T16:33:38.156Z,0.90
2023-05-06T16:36:05.611Z,1.03
2023-05-06T16:38:32.220Z,0.80
2023-05-06T16:40:58.943Z,1.00
2023-05-06T16:43:25.619Z,0.80
2023-05-06T16:45:52.255Z,1.00
2023-05-06T16:48:19.048Z,0.80
2023-05-06T16:50:46.448Z,0.60
2023-05-06T16:53:13.251Z,0.70
2023-05-06T16:55:39.901Z,0.90
2023-05-06T16:58:06.509Z,0.90
2023-05-06T17:00:33.360Z,0.80
2023-05-06T17:03:00.862Z,1.10
2023-05-06T17:05:28.051Z,0.73
2023-05-06T17:07:54.656Z,0.90
2023-05-06T17:10:21.957Z,0.80
2023-05-06T17:12:48.752Z,0.70
2023-05-06T17:15:15.934Z,0.90
2023-05-06T17:17:42.735Z,0.80
2023-05-06T17:20:09.861Z,0.80
2023-05-06T17:22:37.328Z,0.90
2023-05-06T17:25:04.389Z,0.90
2023-05-06T17:27:31.069Z,0.90
2023-05-06T17:30:00.230Z,0.83
2023-05-06T17:32:26.988Z,0.90
2023-05-06T17:34:53.686Z,0.83
2023-05-06T17:37:20.443Z,0.70
2023-05-06T17:39:47.236Z,0.80
2023-05-06T17:42:13.982Z,1.00
2023-05-06T17:44:42.923Z,0.97
2023-05-06T17:47:10.527Z,1.10
2023-05-06T17:49:37.236Z,1.10
2023-05-06T17:52:03.968Z,1.10
2023-05-06T17:54:34.650Z,0.90
2023-05-06T17:57:03.238Z,1.10
2023-05-06T17:59:29.867Z,0.93
2023-05-06T18:01:56.520Z,1.10
2023-05-06T18:04:23.234Z,1.00
2023-05-06T18:06:49.870Z,1.00
2023-05-06T18:09:16.524Z,0.90
2023-05-06T18:11:44.112Z,1.00
2023-05-06T18:14:11.142Z,1.00
2023-05-06T18:16:38.197Z,0.97
2023-05-06T18:19:05.157Z,1.00
2023-05-06T18:21:33.812Z,0.90
2023-05-06T18:24:10.308Z,1.10
2023-05-06T18:26:45.373Z,1.10
2023-05-06T18:29:12.899Z,1.10
2023-05-06T18:31:39.658Z,1.10
2023-05-06T18:34:06.457Z,1.10
2023-05-06T18:36:34.826Z,1.00
2023-05-06T18:39:01.827Z,1.00
2023-05-06T18:41:28.476Z,1.30
2023-05-06T18:43:55.064Z,1.20
2023-05-06T18:46:21.744Z,1.10
2023-05-06T18:48:48.446Z,1.20
2023-05-06T18:51:17.997Z,1.00
2023-05-06T18:53:44.925Z,1.10
2023-05-06T18:56:11.838Z,1.20
2023-05-06T18:58:39.895Z,1.20
2023-05-06T19:01:07.948Z,1.17
2023-05-06T19:03:35.715Z,1.23
2023-05-06T19:06:04.253Z,1.27
2023-05-06T19:08:31.636Z,1.20
2023-05-06T19:11:02.286Z,1.20
2023-05-06T19:13:29.278Z,1.50
2023-05-06T19:15:57.012Z,1.00
2023-05-06T19:18:23.789Z,1.20
2023-05-06T19:20:50.663Z,1.10
2023-05-06T19:23:17.309Z,1.27
2023-05-06T19:25:43.947Z,1.10
2023-05-06T19:28:10.818Z,1.10
2023-05-06T19:30:37.705Z,1.47
2023-05-06T19:33:04.580Z,1.30
2023-05-06T19:35:31.395Z,1.43
2023-05-06T19:37:58.641Z,1.40
2023-05-06T19:40:25.459Z,1.30
2023-05-06T19:42:53.634Z,1.33
2023-05-06T19:45:20.466Z,1.20
2023-05-06T19:47:47.153Z,1.60
2023-05-06T19:50:13.856Z,1.27
2023-05-06T19:52:40.610Z,1.37
2023-05-06T19:55:07.923Z,1.30
2023-05-06T19:57:34.629Z,1.17
2023-05-06T20:00:05.775Z,1.33
2023-05-06T20:02:32.897Z,1.33
2023-05-06T20:05:00.442Z,1.50
2023-05-06T20:07:27.504Z,1.30
2023-05-06T20:09:55.893Z,1.63
2023-05-06T20:12:23.425Z,1.70
2023-05-06T20:14:50.102Z,1.57
2023-05-06T20:17:17.094Z,1.90
2023-05-06T20:19:44.946Z,1.63
2023-05-06T20:22:11.784Z,1.63
2023-05-06T20:24:40.294Z,1.60
2023-05-06T20:27:07.083Z,1.53
2023-05-06T20:29:33.715Z,1.67
2023-05-06T20:32:00.642Z,1.30
2023-05-06T20:34:27.697Z,1.37
2023-05-06T20:36:55.228Z,1.50
2023-05-06T20:39:22.283Z,1.50
2023-05-06T20:41:49.231Z,1.30
2023-05-06T20:44:15.983Z,1.70
2023-05-06T20:46:42.709Z,1.40
2023-05-06T20:49:09.359Z,1.60
2023-05-06T20:51:36.224Z,1.50
2023-05-06T20:54:03.907Z,1.70
2023-05-06T20:56:30.600Z,1.50
2023-05-06T20:58:57.279Z,1.70
2023-05-06T21:01:25.559Z,1.40
2023-05-06T21:03:52.455Z,1.60
2023-05-06T21:06:19.548Z,1.50
2023-05-06T21:08:46.893Z,1.43
2023-05-06T21:11:13.752Z,1.97
2023-05-06T21:13:40.785Z,1.70
2023-05-06T21:16:07.469Z,1.43
2023-05-06T21:18:34.335Z,1.70
2023-05-06T21:21:01.169Z,1.30
2023-05-06T21:23:27.818Z,1.67
2023-05-06T21:25:54.466Z,1.47
2023-05-06T21:28:21.246Z,1.70
2023-05-06T21:30:47.986Z,1.60
2023-05-06T21:33:14.646Z,1.77
2023-05-06T21:35:41.295Z,1.80
2023-05-06T21:38:07.933Z,1.90
2023-05-06T21:40:34.589Z,1.73
2023-05-06T21:43:02.128Z,1.70
2023-05-06T21:45:29.082Z,1.50
2023-05-06T21:47:55.819Z,1.90
2023-05-06T21:50:22.652Z,1.70
2023-05-06T21:52:49.243Z,1.70
2023-05-06T21:55:15.887Z,2.03
2023-05-06T21:57:43.493Z,1.73
2023-05-06T22:00:12.270Z,2.07
2023-05-06T22:02:40.202Z,1.80
2023-05-06T22:05:08.151Z,1.77
2023-05-06T22:07:35.662Z,1.90
2023-05-06T22:10:02.526Z,1.53
2023-05-06T22:12:29.261Z,1.47
2023-05-06T22:14:55.891Z,1.83
2023-05-06T22:17:22.585Z,1.80
2023-05-06T22:19:49.582Z,1.67
2023-05-06T22:22:16.613Z,1.87
2023-05-06T22:24:43.301Z,2.10
2023-05-06T22:27:09.919Z,1.80
2023-05-06T22:29:36.884Z,1.63
2023-05-06T22:32:03.722Z,1.60
2023-05-06T22:34:30.595Z,1.97
2023-05-06T22:36:58.322Z,1.80
2023-05-06T22:39:27.206Z,1.70
2023-05-06T22:41:53.908Z,1.87
2023-05-06T22:44:21.173Z,2.10
2023-05-06T22:46:47.859Z,1.93
2023-05-06T22:49:15.766Z,1.60
2023-05-06T22:51:42.582Z,1.80
2023-05-06T22:54:09.219Z,2.13
2023-05-06T22:56:36.054Z,2.07
2023-05-06T22:59:02.981Z,2.17
2023-05-06T23:01:32.125Z,1.70
2023-05-06T23:03:59.446Z,2.10
2023-05-06T23:06:28.103Z,1.93
2023-05-06T23:08:54.728Z,1.70
2023-05-06T23:11:21.539Z,2.10
2023-05-06T23:13:48.157Z,1.70
2023-05-06T23:16:15.448Z,1.90
2023-05-06T23:18:42.388Z,2.47
2023-05-06T23:21:09.282Z,2.00
2023-05-06T23:23:36.037Z,2.10
2023-05-06T23:26:02.879Z,2.27
2023-05-06T23:28:29.550Z,2.00
2023-05-06T23:30:56.245Z,2.13
2023-05-06T23:33:22.986Z,2.70
2023-05-06T23:35:49.624Z,3.07
2023-05-06T23:38:16.232Z,4.73
2023-05-06T23:40:42.941Z,5.03
2023-05-06T23:43:11.155Z,5.63
2023-05-06T23:45:38.209Z,5.13
2023-05-06T23:48:05.289Z,5.30
2023-05-06T23:50:32.033Z,4.67
2023-05-06T23:52:58.783Z,4.30
2023-05-06T23:55:28.190Z,3.70
2023-05-06T23:57:55.027Z,3.67
